Impacts METAR Board
IDs:

KIAD - Washington/Dulles In, VA, US

Updated at: 2100 UTC 20 Oct 2018
Potential Impact None Slight Moderate High
Time 20/09Z 20/10Z 20/11Z 20/12Z 20/13Z 20/14Z 20/15Z 20/16Z 20/17Z 20/18Z 20/19Z 20/20Z 20/21Z
Temp53 53 53 54 54 55 57 60 63 63 65 67 65
Dewpt52 53 53 53 53 54 55 54 52 52 50 45 45
Altim29.81 29.80 29.80 29.81 29.82 29.82 29.83 29.81 29.79 29.75 29.72 29.68 29.67
VIS10 10 10 10 10 10 10 10 10 10 10 10 10
CIG60 55 50 50 47 55 55 130 60 39 -- 65 80
CoverOVCOVCOVCOVCBKNBKNBKNBKNBKNBKNSCTBKNBKN
FltCatVFRVFRVFRVFRVFRVFRVFRVFRVFRVFRVFRVFRVFR
WX-RA------------------------
WDir1901801900018019002102500270280
WSpd7 7 6 0 0 3 6 0 8 5 3 8 5
WGst-- -- -- -- -- -- -- -- -- -- -- -- --
Raw hourly METARs
KIAD 200852Z 19007KT 10SM -RA FEW035 BKN060 OVC090 12/11 A2981 RMK AO2 SLP094 P0001 60003 T01170111 56025
KIAD 200952Z 18007KT 10SM OVC055 12/12 A2980 RMK AO2 RAE02 SLP089 P0000 T01170117
KIAD 201052Z 19006KT 10SM OVC050 12/12 A2980 RMK AO2 SLP089 T01170117
KIAD 201152Z 00000KT 10SM BKN050 OVC095 12/12 A2981 RMK AO2 SLP093 60003 70007 T01220117 10128 20117 55002
KIAD 201252Z 00000KT 10SM BKN047 BKN060 BKN110 12/12 A2982 RMK AO2 SLP097 T01220117
KIAD 201352Z 18003KT 10SM FEW049 BKN055 BKN110 BKN250 13/12 A2982 RMK AO2 SLP098 T01280122
KIAD 201452Z 19006KT 10SM SCT045 BKN055 BKN110 BKN250 14/13 A2983 RMK AO2 SLP101 T01390128 51009
KIAD 201557Z 00000KT 10SM FEW010 FEW045 SCT065 BKN130 BKN250 16/12 A2981 RMK AO2 T01560122
KIAD 201652Z 21008KT 10SM SCT034 BKN060 BKN130 BKN250 17/11 A2979 RMK AO2 SLP087 T01720111
KIAD 201752Z 25005KT 10SM FEW020 BKN039 BKN065 BKN130 BKN250 17/11 A2975 RMK AO2 SLP073 T01720111 10178 20122 58028
KIAD 201852Z VRB03KT 10SM SCT060 SCT075 18/10 A2972 RMK AO2 SLP063 T01830100
KIAD 201952Z 27008KT 230V300 10SM BKN065 BKN250 19/07 A2968 RMK AO2 SLP050 T01940072
KIAD 202052Z 28005KT 10SM BKN080 18/07 A2967 RMK AO2 SLP047 T01830072 56026



Page loaded:  21:26 UTC  |   02:26 PM Pacific  |   03:26 PM Mountain  |   04:26 PM Central  |   05:26 PM Eastern

 

ADVISORIES

FORECASTS

FORECASTS

OBSERVATIONS

USER TOOLS

ABOUT US